Time;durP1;ratioP1;P1;durP2;ratioP2;P2;SDS_P1;SDS_P2;PMS_P1;PMS_P2;Temp;Humidity;BMP_temperature;BMP_pressure;BME280_temperature;BME280_humidity;BME280_pressure;Samples;Min_cycle;Max_cycle;Signal;HPM_P1;HPM_P2
2021/04/03 00:00:28;;;;;;;4.55;3.50;;;;;;;;;;5026738;28;20117;-43
2021/04/03 00:02:56;;;;;;;4.55;4.20;;;;;;;;;;5033110;28;20045;-43
2021/04/03 00:05:23;;;;;;;4.07;3.88;;;;;;;;;;5020745;28;20048;-42
2021/04/03 00:07:50;;;;;;;3.25;3.15;;;;;;;;;;5026062;28;20030;-42
2021/04/03 00:10:19;;;;;;;3.58;3.35;;;;;;;;;;5021308;28;20137;-44
2021/04/03 00:12:46;;;;;;;3.25;3.15;;;;;;;;;;5021608;28;20092;-43
2021/04/03 00:15:12;;;;;;;3.60;3.50;;;;;;;;;;5031856;28;20033;-43
2021/04/03 00:17:39;;;;;;;4.93;4.63;;;;;;;;;;5023264;28;20041;-42
2021/04/03 00:20:07;;;;;;;6.22;3.72;;;;;;;;;;5028027;28;20050;-43
2021/04/03 00:22:33;;;;;;;7.00;4.25;;;;;;;;;;5029730;28;20497;-43
2021/04/03 00:25:00;;;;;;;4.75;4.43;;;;;;;;;;5027076;28;20060;-42
2021/04/03 00:27:26;;;;;;;4.25;3.95;;;;;;;;;;5032194;28;20045;-44
2021/04/03 00:29:52;;;;;;;4.07;3.78;;;;;;;;;;5026087;28;20041;-42
2021/04/03 00:32:19;;;;;;;6.93;5.03;;;;;;;;;;5027231;28;20393;-43
2021/04/03 00:34:45;;;;;;;3.47;3.28;;;;;;;;;;5026793;28;20121;-42
2021/04/03 00:37:11;;;;;;;4.65;4.38;;;;;;;;;;5023533;28;20410;-43
2021/04/03 00:39:38;;;;;;;4.07;2.97;;;;;;;;;;5030763;28;20044;-43
2021/04/03 00:42:16;;;;;;;6.18;4.80;;;;;;;;;;5027014;28;20084;-42
2021/04/03 00:44:44;;;;;;;5.68;3.90;;;;;;;;;;5027266;28;20049;-43
2021/04/03 00:47:10;;;;;;;5.13;4.72;;;;;;;;;;5028549;28;20096;-43
2021/04/03 00:49:37;;;;;;;4.57;4.38;;;;;;;;;;5021835;28;20042;-44
2021/04/03 00:52:07;;;;;;;4.40;4.20;;;;;;;;;;5028946;28;20077;-43
2021/04/03 00:54:37;;;;;;;3.05;2.83;;;;;;;;;;5028364;28;20096;-44
2021/04/03 00:57:05;;;;;;;4.93;3.45;;;;;;;;;;5021989;28;20077;-43
2021/04/03 00:59:31;;;;;;;4.68;4.47;;;;;;;;;;5028991;28;20037;-43
2021/04/03 01:01:58;;;;;;;4.30;4.00;;;;;;;;;;5026875;28;20047;-43
2021/04/03 01:04:24;;;;;;;3.60;3.47;;;;;;;;;;5028412;28;20046;-45
2021/04/03 01:06:51;;;;;;;3.58;3.28;;;;;;;;;;5027989;28;20037;-44
2021/04/03 01:09:17;;;;;;;3.97;3.78;;;;;;;;;;5025177;28;20392;-43
2021/04/03 01:12:03;;;;;;;3.92;3.83;;;;;;;;;;5025273;28;20076;-54
2021/04/03 01:14:56;;;;;;;4.55;4.20;;;;;;;;;;5027512;28;20445;-43
2021/04/03 01:17:34;;;;;;;4.57;4.30;;;;;;;;;;5023078;28;20058;-43
2021/04/03 01:20:01;;;;;;;3.58;3.35;;;;;;;;;;5030330;28;20092;-45
2021/04/03 01:22:30;;;;;;;4.22;4.03;;;;;;;;;;5017537;28;20103;-45
2021/04/03 01:24:56;;;;;;;3.65;3.35;;;;;;;;;;5019116;28;20041;-43
2021/04/03 01:27:24;;;;;;;4.38;4.18;;;;;;;;;;5016340;28;20113;-44
2021/04/03 01:30:01;;;;;;;3.30;3.20;;;;;;;;;;5022397;28;20040;-42
2021/04/03 01:32:33;;;;;;;4.55;4.35;;;;;;;;;;5027220;28;20042;-42
2021/04/03 01:35:00;;;;;;;3.65;3.38;;;;;;;;;;5025467;28;20050;-43
2021/04/03 01:37:30;;;;;;;3.53;3.40;;;;;;;;;;5018442;28;20091;-44
2021/04/03 01:39:57;;;;;;;5.13;4.93;;;;;;;;;;5025311;28;20057;-45
2021/04/03 01:42:25;;;;;;;4.28;4.05;;;;;;;;;;5027939;28;20513;-44
2021/04/03 01:44:54;;;;;;;4.78;4.68;;;;;;;;;;5027323;28;20052;-43
2021/04/03 01:47:22;;;;;;;4.68;4.47;;;;;;;;;;5029393;28;20132;-43
2021/04/03 01:49:52;;;;;;;4.55;4.40;;;;;;;;;;5021199;28;20033;-44
2021/04/03 01:52:23;;;;;;;5.03;4.72;;;;;;;;;;5016360;28;20089;-46
2021/04/03 01:54:51;;;;;;;5.03;4.72;;;;;;;;;;5026669;28;20122;-42
2021/04/03 01:57:19;;;;;;;6.10;5.25;;;;;;;;;;5016909;28;20041;-44
2021/04/03 01:59:46;;;;;;;4.40;4.30;;;;;;;;;;5035364;28;20500;-43
2021/04/03 02:02:13;;;;;;;5.43;5.18;;;;;;;;;;5031412;28;20034;-42
2021/04/03 02:04:43;;;;;;;5.60;5.28;;;;;;;;;;5034704;28;20037;-43
2021/04/03 02:07:27;;;;;;;4.30;4.00;;;;;;;;;;5032266;28;20485;-44
2021/04/03 02:09:54;;;;;;;4.85;4.50;;;;;;;;;;5031623;28;20037;-45
2021/04/03 02:12:21;;;;;;;4.78;4.15;;;;;;;;;;5025103;28;20040;-42
2021/04/03 02:14:49;;;;;;;4.65;4.18;;;;;;;;;;5033942;28;20489;-46
2021/04/03 02:17:16;;;;;;;3.88;3.78;;;;;;;;;;5031725;28;20038;-43
2021/04/03 02:19:43;;;;;;;5.43;5.22;;;;;;;;;;5030855;28;20037;-43
2021/04/03 02:22:09;;;;;;;7.72;7.35;;;;;;;;;;5029408;28;20073;-43
2021/04/03 02:24:36;;;;;;;5.85;5.65;;;;;;;;;;5036800;28;20046;-44
2021/04/03 02:27:03;;;;;;;6.35;6.22;;;;;;;;;;5033497;28;20034;-43
2021/04/03 02:29:29;;;;;;;6.72;6.53;;;;;;;;;;5026689;28;20545;-43
2021/04/03 02:31:55;;;;;;;6.05;5.85;;;;;;;;;;5036818;28;20033;-43
2021/04/03 02:34:21;;;;;;;8.73;8.38;;;;;;;;;;5030837;28;20079;-44
2021/04/03 02:36:48;;;;;;;8.48;8.25;;;;;;;;;;5035020;28;20034;-43
2021/04/03 02:39:14;;;;;;;8.90;8.70;;;;;;;;;;5034420;28;20478;-44
2021/04/03 02:41:40;;;;;;;10.00;9.45;;;;;;;;;;5027803;28;20050;-43
2021/04/03 02:44:14;;;;;;;10.02;9.55;;;;;;;;;;5034085;28;20044;-43
2021/04/03 02:46:55;;;;;;;9.20;8.70;;;;;;;;;;5030793;28;20103;-42
2021/04/03 02:49:24;;;;;;;8.68;8.27;;;;;;;;;;5032923;28;20037;-43
2021/04/03 02:51:53;;;;;;;11.63;11.30;;;;;;;;;;5035128;28;20482;-43
2021/04/03 02:54:21;;;;;;;10.75;10.55;;;;;;;;;;5030901;28;20481;-43
2021/04/03 02:56:48;;;;;;;12.98;12.43;;;;;;;;;;5025765;28;20035;-42
2021/04/03 02:59:23;;;;;;;15.77;14.95;;;;;;;;;;5026930;28;20095;-42
2021/04/03 03:01:53;;;;;;;15.48;14.65;;;;;;;;;;5032867;28;20065;-43
2021/04/03 03:04:20;;;;;;;9.57;9.18;;;;;;;;;;5036089;28;20041;-42
2021/04/03 03:06:46;;;;;;;14.48;14.07;;;;;;;;;;5030429;28;20087;-44
2021/04/03 03:09:14;;;;;;;12.98;12.77;;;;;;;;;;5033224;28;20481;-43
2021/04/03 03:11:44;;;;;;;14.60;14.15;;;;;;;;;;5024531;28;20490;-44
2021/04/03 03:14:15;;;;;;;10.50;10.27;;;;;;;;;;5021335;28;20401;-42
2021/04/03 03:16:42;;;;;;;16.30;15.60;;;;;;;;;;5027508;28;20033;-42
2021/04/03 03:19:09;;;;;;;17.45;16.73;;;;;;;;;;5027640;28;20049;-42
2021/04/03 03:21:39;;;;;;;18.23;17.83;;;;;;;;;;5030415;28;20083;-45
2021/04/03 03:24:09;;;;;;;18.02;17.10;;;;;;;;;;5031280;28;20120;-42
2021/04/03 03:26:37;;;;;;;18.48;17.98;;;;;;;;;;5023467;28;20042;-44
2021/04/03 03:29:04;;;;;;;16.80;16.15;;;;;;;;;;5032465;28;20029;-43
2021/04/03 03:31:30;;;;;;;17.48;17.08;;;;;;;;;;5029006;28;20069;-43
2021/04/03 03:33:57;;;;;;;16.30;15.77;;;;;;;;;;5027581;28;20069;-43
2021/04/03 03:36:24;;;;;;;17.67;17.23;;;;;;;;;;5033706;28;20053;-44
2021/04/03 03:38:51;;;;;;;16.30;15.80;;;;;;;;;;5025849;28;20494;-43
2021/04/03 03:41:18;;;;;;;17.92;17.38;;;;;;;;;;5021712;28;20387;-42
2021/04/03 03:43:45;;;;;;;19.15;18.63;;;;;;;;;;5029555;28;20065;-43
2021/04/03 03:46:11;;;;;;;19.92;19.33;;;;;;;;;;5027756;28;20125;-43
2021/04/03 03:48:38;;;;;;;20.13;19.25;;;;;;;;;;5031795;28;20042;-44
2021/04/03 03:51:05;;;;;;;19.55;18.67;;;;;;;;;;5024599;28;20057;-43
2021/04/03 03:53:31;;;;;;;18.85;18.00;;;;;;;;;;5032865;28;20041;-43
2021/04/03 03:55:59;;;;;;;19.60;18.67;;;;;;;;;;5017347;28;20046;-43
2021/04/03 03:58:25;;;;;;;20.98;20.08;;;;;;;;;;5021045;28;20391;-42
2021/04/03 04:00:52;;;;;;;20.95;20.17;;;;;;;;;;5033544;28;20057;-43
2021/04/03 04:03:18;;;;;;;19.20;18.58;;;;;;;;;;5022714;28;20045;-43
2021/04/03 04:05:49;;;;;;;19.70;18.88;;;;;;;;;;5021498;28;20042;-44
2021/04/03 04:08:23;;;;;;;20.27;19.33;;;;;;;;;;5031247;28;20481;-43
2021/04/03 04:10:49;;;;;;;18.80;17.73;;;;;;;;;;5025857;28;20096;-44
2021/04/03 04:13:16;;;;;;;18.63;17.33;;;;;;;;;;5031182;28;20033;-43
2021/04/03 04:15:42;;;;;;;20.83;19.80;;;;;;;;;;5027058;28;20042;-43
2021/04/03 04:18:09;;;;;;;20.98;20.38;;;;;;;;;;5022499;28;20164;-42
2021/04/03 04:20:35;;;;;;;20.10;19.15;;;;;;;;;;5027121;28;20402;-43
2021/04/03 04:23:01;;;;;;;23.58;22.50;;;;;;;;;;5023469;28;20046;-43
2021/04/03 04:25:28;;;;;;;22.58;21.73;;;;;;;;;;5017387;28;20038;-43
2021/04/03 04:27:54;;;;;;;22.63;21.52;;;;;;;;;;5027529;28;20041;-44
2021/04/03 04:30:21;;;;;;;20.48;19.75;;;;;;;;;;5028800;28;20099;-43
2021/04/03 04:32:48;;;;;;;21.75;20.92;;;;;;;;;;5021131;28;20100;-42
2021/04/03 04:35:14;;;;;;;22.70;22.02;;;;;;;;;;5023036;28;20087;-42
2021/04/03 04:37:41;;;;;;;22.60;21.75;;;;;;;;;;5030797;28;20486;-43
2021/04/03 04:40:09;;;;;;;23.13;22.15;;;;;;;;;;5027470;28;20049;-44
2021/04/03 04:42:38;;;;;;;22.50;21.75;;;;;;;;;;5026564;28;20680;-46
2021/04/03 04:45:04;;;;;;;22.77;21.95;;;;;;;;;;5031959;28;20057;-44
2021/04/03 04:47:30;;;;;;;24.90;23.80;;;;;;;;;;5024374;28;20059;-44
2021/04/03 04:49:57;;;;;;;23.55;22.70;;;;;;;;;;5022478;28;20077;-44
2021/04/03 04:52:23;;;;;;;23.25;22.25;;;;;;;;;;5028085;28;20041;-42
2021/04/03 04:54:49;;;;;;;19.60;18.83;;;;;;;;;;5026848;28;20048;-42
2021/04/03 04:57:15;;;;;;;8.77;8.48;;;;;;;;;;5014309;28;20513;-43
2021/04/03 04:59:41;;;;;;;10.68;10.13;;;;;;;;;;5025654;28;20065;-42
2021/04/03 05:02:08;;;;;;;7.85;7.65;;;;;;;;;;5020175;28;20501;-44
2021/04/03 05:04:34;;;;;;;6.53;6.18;;;;;;;;;;5029062;28;20591;-43
2021/04/03 05:07:00;;;;;;;6.95;6.78;;;;;;;;;;5024159;28;20038;-43
2021/04/03 05:09:26;;;;;;;12.63;12.27;;;;;;;;;;5031759;28;20048;-44
2021/04/03 05:11:52;;;;;;;20.48;19.05;;;;;;;;;;5025630;28;20042;-44
2021/04/03 05:14:19;;;;;;;20.85;20.27;;;;;;;;;;5029612;28;20084;-44
2021/04/03 05:16:45;;;;;;;20.13;19.45;;;;;;;;;;5016127;28;20394;-43
2021/04/03 05:19:11;;;;;;;21.02;20.23;;;;;;;;;;5019559;28;20482;-44
2021/04/03 05:21:37;;;;;;;22.23;21.50;;;;;;;;;;5031222;28;20068;-43
2021/04/03 05:24:04;;;;;;;18.65;18.00;;;;;;;;;;5025966;28;20698;-43
2021/04/03 05:26:30;;;;;;;17.08;16.38;;;;;;;;;;5030010;28;20389;-43
2021/04/03 05:28:56;;;;;;;16.90;16.15;;;;;;;;;;5015718;28;20066;-44
2021/04/03 05:31:26;;;;;;;24.33;22.55;;;;;;;;;;5021224;28;20070;-42
2021/04/03 05:33:52;;;;;;;22.67;21.20;;;;;;;;;;5029858;28;20105;-46
2021/04/03 05:36:18;;;;;;;9.40;6.60;;;;;;;;;;5026165;28;20124;-42
2021/04/03 05:38:45;;;;;;;9.98;9.60;;;;;;;;;;5028522;28;20857;-42
2021/04/03 05:41:11;;;;;;;7.88;7.43;;;;;;;;;;5027925;28;20034;-43
2021/04/03 05:43:38;;;;;;;13.65;12.60;;;;;;;;;;5024578;28;20132;-42
2021/04/03 05:46:04;;;;;;;20.25;18.38;;;;;;;;;;5031307;28;20038;-43
2021/04/03 05:48:31;;;;;;;11.02;10.00;;;;;;;;;;5026784;28;20045;-41
2021/04/03 05:51:01;;;;;;;9.43;8.75;;;;;;;;;;5027270;28;20033;-42
2021/04/03 05:53:27;;;;;;;11.93;11.18;;;;;;;;;;5030578;28;20116;-43
2021/04/03 05:55:58;;;;;;;9.07;8.65;;;;;;;;;;5025530;28;20042;-43
2021/04/03 05:58:25;;;;;;;17.67;16.83;;;;;;;;;;5028198;28;20073;-41
2021/04/03 06:00:52;;;;;;;14.50;13.60;;;;;;;;;;5028571;28;20037;-43
2021/04/03 06:03:18;;;;;;;21.00;20.10;;;;;;;;;;5025434;28;20037;-41
2021/04/03 06:05:47;;;;;;;25.60;24.10;;;;;;;;;;5031912;28;20041;-42
2021/04/03 06:08:14;;;;;;;25.65;24.65;;;;;;;;;;5024003;28;20037;-41
2021/04/03 06:10:40;;;;;;;25.20;24.10;;;;;;;;;;5028324;28;20045;-43
2021/04/03 06:13:17;;;;;;;24.25;23.05;;;;;;;;;;5026072;28;20064;-42
2021/04/03 06:15:43;;;;;;;27.08;25.33;;;;;;;;;;5025216;28;20057;-41
2021/04/03 06:18:11;;;;;;;27.00;25.65;;;;;;;;;;5031802;28;20132;-41
2021/04/03 06:20:38;;;;;;;25.75;24.55;;;;;;;;;;5024236;28;20049;-44
2021/04/03 06:23:05;;;;;;;27.98;26.08;;;;;;;;;;5027887;28;20038;-41
2021/04/03 06:25:51;;;;;;;27.17;25.90;;;;;;;;;;5028181;28;20125;-42
2021/04/03 06:28:17;;;;;;;25.25;24.02;;;;;;;;;;5025331;28;20382;-42
2021/04/03 06:30:43;;;;;;;25.10;23.70;;;;;;;;;;5030838;28;20041;-41
2021/04/03 06:33:19;;;;;;;27.25;25.63;;;;;;;;;;5026525;28;20061;-43
2021/04/03 06:36:03;;;;;;;25.85;24.50;;;;;;;;;;5019006;28;20054;-41
2021/04/03 06:38:30;;;;;;;22.08;21.08;;;;;;;;;;5030154;28;20029;-41
2021/04/03 06:41:14;;;;;;;14.90;14.27;;;;;;;;;;5025393;28;20494;-42
2021/04/03 06:43:40;;;;;;;8.52;7.90;;;;;;;;;;5025479;28;20033;-41
2021/04/03 06:46:23;;;;;;;6.60;6.40;;;;;;;;;;5031718;28;20037;-41
2021/04/03 06:48:51;;;;;;;6.80;6.50;;;;;;;;;;5027592;28;20054;-42
2021/04/03 06:51:19;;;;;;;8.93;8.68;;;;;;;;;;5030510;28;20129;-42
2021/04/03 06:53:46;;;;;;;19.23;18.15;;;;;;;;;;5032181;28;20064;-42
2021/04/03 06:56:13;;;;;;;21.90;20.75;;;;;;;;;;5026490;28;20049;-45
2021/04/03 06:58:43;;;;;;;18.48;17.35;;;;;;;;;;5033136;28;20030;-42
2021/04/03 07:01:10;;;;;;;6.40;6.20;;;;;;;;;;5020354;28;20081;-41
2021/04/03 07:03:42;;;;;;;7.00;6.68;;;;;;;;;;5021856;28;20034;-42
2021/04/03 07:06:08;;;;;;;6.90;6.70;;;;;;;;;;5032650;28;20038;-43
2021/04/03 07:08:37;;;;;;;8.60;8.27;;;;;;;;;;5026525;28;20040;-42
2021/04/03 07:11:05;;;;;;;8.38;7.80;;;;;;;;;;5032815;28;20453;-42
2021/04/03 07:13:31;;;;;;;8.77;8.20;;;;;;;;;;5029651;28;20740;-41
2021/04/03 07:15:59;;;;;;;8.13;7.68;;;;;;;;;;5027422;28;20045;-42
2021/04/03 07:18:25;;;;;;;6.35;5.95;;;;;;;;;;5033700;28;20067;-42
2021/04/03 07:20:52;;;;;;;6.38;5.85;;;;;;;;;;5028251;28;20061;-41
2021/04/03 07:23:19;;;;;;;8.15;6.43;;;;;;;;;;5032035;28;20363;-42
2021/04/03 07:25:46;;;;;;;6.85;6.55;;;;;;;;;;5031554;28;20539;-41
2021/04/03 07:28:15;;;;;;;6.80;6.32;;;;;;;;;;5029537;28;20489;-42
2021/04/03 07:30:42;;;;;;;5.90;5.60;;;;;;;;;;5034222;28;20041;-41
2021/04/03 07:33:15;;;;;;;5.80;5.50;;;;;;;;;;5028124;28;20053;-42
2021/04/03 07:35:44;;;;;;;6.15;5.97;;;;;;;;;;5029593;28;20115;-41
2021/04/03 07:38:12;;;;;;;5.18;4.95;;;;;;;;;;5031427;28;20045;-43
2021/04/03 07:40:39;;;;;;;4.50;4.32;;;;;;;;;;5028851;28;20095;-42
2021/04/03 07:43:24;;;;;;;5.65;5.25;;;;;;;;;;5032955;28;20036;-42
2021/04/03 07:45:51;;;;;;;5.25;5.00;;;;;;;;;;5029824;28;20037;-40
2021/04/03 07:48:35;;;;;;;5.75;5.40;;;;;;;;;;5026670;28;20068;-41
2021/04/03 07:51:03;;;;;;;4.75;4.45;;;;;;;;;;5016989;28;20045;-42
2021/04/03 07:53:42;;;;;;;5.13;4.88;;;;;;;;;;5027732;28;20045;-42
2021/04/03 07:56:09;;;;;;;4.45;4.25;;;;;;;;;;5027579;28;20048;-41
2021/04/03 07:58:37;;;;;;;5.63;5.32;;;;;;;;;;5028154;28;20041;-40
2021/04/03 08:01:18;;;;;;;4.80;4.63;;;;;;;;;;5025852;28;20044;-42
2021/04/03 08:03:55;;;;;;;4.40;4.10;;;;;;;;;;5028603;28;20037;-43
2021/04/03 08:06:37;;;;;;;4.38;4.07;;;;;;;;;;5032444;28;20044;-44
2021/04/03 08:09:05;;;;;;;4.03;3.72;;;;;;;;;;5027787;28;20048;-43
2021/04/03 08:11:31;;;;;;;3.38;3.17;;;;;;;;;;5032254;28;20041;-41
2021/04/03 08:13:58;;;;;;;3.90;3.55;;;;;;;;;;5027751;28;20498;-42
2021/04/03 08:16:28;;;;;;;4.97;4.78;;;;;;;;;;5027482;28;20046;-45
2021/04/03 08:18:56;;;;;;;2.97;2.58;;;;;;;;;;5032718;28;20124;-42
2021/04/03 08:21:23;;;;;;;3.53;3.22;;;;;;;;;;5026136;28;20046;-43
2021/04/03 08:23:50;;;;;;;4.55;3.63;;;;;;;;;;5031498;28;20072;-42
2021/04/03 08:26:21;;;;;;;4.35;4.03;;;;;;;;;;5027686;28;20036;-41
2021/04/03 08:28:48;;;;;;;4.13;3.92;;;;;;;;;;5025600;28;20092;-42
2021/04/03 08:31:18;;;;;;;4.60;3.97;;;;;;;;;;5033055;28;20103;-43
2021/04/03 08:33:46;;;;;;;3.72;3.25;;;;;;;;;;5027164;28;20493;-43
2021/04/03 08:36:14;;;;;;;3.78;3.50;;;;;;;;;;5026664;28;20046;-41
2021/04/03 08:38:43;;;;;;;5.88;3.67;;;;;;;;;;5030156;28;20050;-42
2021/04/03 08:41:15;;;;;;;3.33;3.13;;;;;;;;;;5025981;28;20057;-43
2021/04/03 08:43:42;;;;;;;3.00;2.90;;;;;;;;;;5031913;28;20084;-41
2021/04/03 08:46:11;;;;;;;2.67;2.33;;;;;;;;;;5027761;28;20048;-44
2021/04/03 08:48:38;;;;;;;5.38;3.88;;;;;;;;;;5027388;28;20048;-42
2021/04/03 08:51:05;;;;;;;3.38;3.10;;;;;;;;;;5014670;28;20092;-44
2021/04/03 08:53:48;;;;;;;2.45;2.35;;;;;;;;;;5026624;28;20037;-42
2021/04/03 08:56:19;;;;;;;3.38;3.08;;;;;;;;;;5030002;28;20371;-41
2021/04/03 08:58:45;;;;;;;3.03;2.42;;;;;;;;;;5030276;28;20045;-42
2021/04/03 09:01:12;;;;;;;2.33;2.13;;;;;;;;;;5025015;28;20363;-43
2021/04/03 09:03:41;;;;;;;2.53;2.42;;;;;;;;;;5032400;28;20044;-46
2021/04/03 09:06:07;;;;;;;2.88;2.67;;;;;;;;;;5018760;28;20038;-41
2021/04/03 09:08:33;;;;;;;2.40;2.20;;;;;;;;;;5017930;28;20045;-42
2021/04/03 09:11:03;;;;;;;4.28;2.20;;;;;;;;;;5028997;28;20036;-41
2021/04/03 09:13:31;;;;;;;2.28;2.15;;;;;;;;;;5025008;28;20053;-44
2021/04/03 09:16:06;;;;;;;2.75;2.45;;;;;;;;;;5030433;28;20111;-42
2021/04/03 09:18:32;;;;;;;5.72;2.00;;;;;;;;;;5027220;28;20057;-43
2021/04/03 09:20:59;;;;;;;2.28;2.17;;;;;;;;;;5024983;28;20050;-43
2021/04/03 09:23:25;;;;;;;3.15;2.53;;;;;;;;;;5029742;28;20657;-42
2021/04/03 09:26:01;;;;;;;2.72;2.47;;;;;;;;;;5025161;28;20413;-43
2021/04/03 09:28:38;;;;;;;4.07;2.67;;;;;;;;;;5027309;28;20074;-45
2021/04/03 09:31:05;;;;;;;1.83;1.55;;;;;;;;;;5026611;28;20038;-42
2021/04/03 09:33:31;;;;;;;3.22;1.50;;;;;;;;;;5025315;28;20037;-42
2021/04/03 09:36:09;;;;;;;3.47;1.40;;;;;;;;;;5029342;28;20081;-44
2021/04/03 09:38:37;;;;;;;3.53;1.60;;;;;;;;;;5027403;28;20044;-42
2021/04/03 09:41:26;;;;;;;2.45;1.25;;;;;;;;;;5025461;28;20038;-43
2021/04/03 09:43:53;;;;;;;3.63;1.60;;;;;;;;;;5024608;28;20042;-42
2021/04/03 09:46:20;;;;;;;2.83;1.88;;;;;;;;;;5023836;28;20430;-44
2021/04/03 09:48:46;;;;;;;1.50;1.50;;;;;;;;;;5025023;28;20073;-42
2021/04/03 09:51:13;;;;;;;1.45;1.35;;;;;;;;;;5027971;28;20033;-44
2021/04/03 09:53:39;;;;;;;3.65;1.27;;;;;;;;;;5023670;28;20379;-42
2021/04/03 09:56:06;;;;;;;4.80;1.80;;;;;;;;;;5020727;28;20048;-44
2021/04/03 09:58:33;;;;;;;3.17;1.33;;;;;;;;;;5028432;28;20057;-43
2021/04/03 10:00:59;;;;;;;2.42;1.30;;;;;;;;;;5028551;28;20060;-42
2021/04/03 10:03:26;;;;;;;3.72;1.50;;;;;;;;;;5026663;28;20037;-43
2021/04/03 10:05:52;;;;;;;1.88;1.00;;;;;;;;;;5020686;28;20069;-41
2021/04/03 10:08:18;;;;;;;2.15;1.48;;;;;;;;;;5022246;28;20080;-43
2021/04/03 10:10:44;;;;;;;3.58;1.13;;;;;;;;;;5020996;28;20033;-42
2021/04/03 10:13:11;;;;;;;0.90;0.90;;;;;;;;;;5026230;28;20053;-44
2021/04/03 10:15:37;;;;;;;1.15;0.90;;;;;;;;;;5026468;28;20755;-42
2021/04/03 10:18:04;;;;;;;2.53;1.17;;;;;;;;;;5023307;28;20095;-46
2021/04/03 10:20:30;;;;;;;1.23;0.90;;;;;;;;;;5029158;28;20072;-43
2021/04/03 10:22:57;;;;;;;1.00;1.00;;;;;;;;;;5025737;28;20042;-44
2021/04/03 10:25:23;;;;;;;1.30;1.23;;;;;;;;;;5028789;28;20501;-42
2021/04/03 10:27:49;;;;;;;2.80;1.45;;;;;;;;;;5026166;28;20049;-43
2021/04/03 10:30:16;;;;;;;2.65;1.30;;;;;;;;;;5030611;28;20072;-42
2021/04/03 10:32:42;;;;;;;2.35;1.00;;;;;;;;;;5030829;28;20075;-42
2021/04/03 10:35:08;;;;;;;1.55;1.08;;;;;;;;;;5025464;28;20125;-44
2021/04/03 10:37:35;;;;;;;2.70;2.45;;;;;;;;;;5033038;28;20041;-43
2021/04/03 10:40:02;;;;;;;1.58;1.10;;;;;;;;;;5027039;28;20049;-43
2021/04/03 10:42:28;;;;;;;1.10;1.10;;;;;;;;;;5027293;28;20029;-43
2021/04/03 10:44:54;;;;;;;2.83;1.23;;;;;;;;;;5026807;28;20045;-44
2021/04/03 10:47:20;;;;;;;1.33;1.00;;;;;;;;;;5023588;28;20050;-43
2021/04/03 10:49:46;;;;;;;1.30;1.20;;;;;;;;;;5034236;28;20041;-42
2021/04/03 10:52:12;;;;;;;1.13;1.13;;;;;;;;;;5026018;28;20042;-43
2021/04/03 10:54:39;;;;;;;1.30;1.20;;;;;;;;;;5031253;28;20513;-42
2021/04/03 10:57:06;;;;;;;1.40;1.30;;;;;;;;;;5030927;28;20041;-42
2021/04/03 10:59:32;;;;;;;1.30;1.20;;;;;;;;;;5025106;28;20056;-45
2021/04/03 11:01:58;;;;;;;1.55;1.10;;;;;;;;;;5034425;28;20045;-43
2021/04/03 11:04:24;;;;;;;9.35;1.25;;;;;;;;;;5027448;28;20045;-43
2021/04/03 11:06:51;;;;;;;1.52;1.42;;;;;;;;;;5030849;28;20394;-42
2021/04/03 11:09:17;;;;;;;1.20;1.10;;;;;;;;;;5031018;28;20064;-44
2021/04/03 11:11:43;;;;;;;2.63;1.20;;;;;;;;;;5026372;28;20042;-46
2021/04/03 11:14:10;;;;;;;1.50;1.40;;;;;;;;;;5028537;28;20029;-46
2021/04/03 11:16:36;;;;;;;1.73;1.63;;;;;;;;;;5024860;28;20100;-47
2021/04/03 11:19:02;;;;;;;1.52;1.20;;;;;;;;;;5022187;28;20139;-48
2021/04/03 11:21:29;;;;;;;6.65;2.25;;;;;;;;;;5027357;28;20493;-48
2021/04/03 11:23:55;;;;;;;2.15;1.00;;;;;;;;;;5026646;28;20057;-45
2021/04/03 11:26:21;;;;;;;1.10;1.00;;;;;;;;;;5021691;28;20474;-44
2021/04/03 11:28:47;;;;;;;1.30;1.15;;;;;;;;;;5027562;28;20083;-47
2021/04/03 11:31:13;;;;;;;1.50;0.98;;;;;;;;;;5028391;28;20038;-48
2021/04/03 11:33:40;;;;;;;2.83;1.20;;;;;;;;;;5031174;28;20462;-46
2021/04/03 11:36:06;;;;;;;1.10;1.10;;;;;;;;;;5024853;28;20038;-46
2021/04/03 11:38:33;;;;;;;1.70;1.10;;;;;;;;;;5032949;28;20049;-47
2021/04/03 11:41:00;;;;;;;1.75;1.10;;;;;;;;;;5027300;28;20048;-45
2021/04/03 11:43:26;;;;;;;1.65;1.17;;;;;;;;;;5024389;28;20053;-48
2021/04/03 11:45:53;;;;;;;1.20;1.10;;;;;;;;;;5033628;28;20038;-46
2021/04/03 11:48:19;;;;;;;2.13;1.38;;;;;;;;;;5024330;28;20116;-48
2021/04/03 11:50:46;;;;;;;1.00;1.00;;;;;;;;;;5030113;28;20470;-46
2021/04/03 11:53:13;;;;;;;1.23;1.10;;;;;;;;;;5029245;28;20046;-45
2021/04/03 11:55:39;;;;;;;1.15;1.15;;;;;;;;;;5022978;28;20037;-43
2021/04/03 11:58:06;;;;;;;1.58;0.90;;;;;;;;;;5030269;28;20041;-44
2021/04/03 12:00:32;;;;;;;2.25;1.00;;;;;;;;;;5024656;28;20506;-43
2021/04/03 12:02:58;;;;;;;1.00;1.00;;;;;;;;;;5029691;28;20038;-43
2021/04/03 12:05:25;;;;;;;2.03;1.05;;;;;;;;;;5031162;28;20049;-44
2021/04/03 12:07:51;;;;;;;3.22;1.65;;;;;;;;;;5030299;28;20075;-44
2021/04/03 12:10:17;;;;;;;1.90;0.90;;;;;;;;;;5032263;28;20095;-44
2021/04/03 12:12:44;;;;;;;1.55;0.95;;;;;;;;;;5024769;28;20069;-44
2021/04/03 12:15:11;;;;;;;1.50;1.17;;;;;;;;;;5029698;28;20501;-44
2021/04/03 12:17:42;;;;;;;3.40;1.52;;;;;;;;;;5027503;28;20033;-45
2021/04/03 12:20:10;;;;;;;2.35;1.55;;;;;;;;;;5023695;28;20461;-46
2021/04/03 12:22:37;;;;;;;1.10;1.00;;;;;;;;;;5023674;28;20124;-45
2021/04/03 12:25:03;;;;;;;0.90;0.90;;;;;;;;;;5025986;28;20073;-44
2021/04/03 12:27:29;;;;;;;2.45;1.33;;;;;;;;;;5029166;28;20079;-46
2021/04/03 12:29:56;;;;;;;1.65;1.10;;;;;;;;;;5030639;28;20045;-48
2021/04/03 12:32:22;;;;;;;1.10;1.00;;;;;;;;;;5025291;28;20061;-46
2021/04/03 12:34:48;;;;;;;1.30;1.10;;;;;;;;;;5029109;28;20045;-48
2021/04/03 12:37:17;;;;;;;5.30;1.65;;;;;;;;;;5025820;28;20046;-46
2021/04/03 12:39:43;;;;;;;4.10;1.30;;;;;;;;;;5028407;28;20049;-45
2021/04/03 12:42:10;;;;;;;0.90;0.90;;;;;;;;;;5030301;28;20045;-43
2021/04/03 12:44:36;;;;;;;0.82;0.82;;;;;;;;;;5024531;28;20058;-45
2021/04/03 12:47:03;;;;;;;0.85;0.85;;;;;;;;;;5021414;28;20037;-44
2021/04/03 12:49:29;;;;;;;0.80;0.80;;;;;;;;;;5026682;28;20382;-44
2021/04/03 12:51:55;;;;;;;0.90;0.90;;;;;;;;;;5026305;28;20084;-43
2021/04/03 12:54:22;;;;;;;2.30;1.65;;;;;;;;;;5030669;28;20042;-45
2021/04/03 12:56:49;;;;;;;1.00;1.00;;;;;;;;;;5025199;28;20643;-45
2021/04/03 12:59:15;;;;;;;1.13;0.80;;;;;;;;;;5030632;28;20041;-45
2021/04/03 13:01:42;;;;;;;1.58;1.00;;;;;;;;;;5019667;28;20048;-46
2021/04/03 13:04:08;;;;;;;1.25;0.90;;;;;;;;;;5027037;28;20433;-44
2021/04/03 13:06:34;;;;;;;1.05;0.98;;;;;;;;;;5028684;28;20501;-43
2021/04/03 13:09:01;;;;;;;1.27;1.13;;;;;;;;;;5019823;28;20056;-45
2021/04/03 13:11:30;;;;;;;0.98;0.98;;;;;;;;;;5024474;28;20040;-44
2021/04/03 13:13:57;;;;;;;1.90;1.10;;;;;;;;;;5027374;28;20034;-43
2021/04/03 13:16:23;;;;;;;1.63;1.20;;;;;;;;;;5023147;28;20100;-43
2021/04/03 13:18:50;;;;;;;1.77;1.10;;;;;;;;;;5030154;28;20048;-45
2021/04/03 13:21:17;;;;;;;1.30;1.20;;;;;;;;;;5022897;28;20042;-43
2021/04/03 13:23:44;;;;;;;1.73;1.00;;;;;;;;;;5021554;28;20049;-44
2021/04/03 13:26:10;;;;;;;1.60;1.50;;;;;;;;;;5026791;28;20045;-43
2021/04/03 13:28:51;;;;;;;1.95;1.10;;;;;;;;;;5020532;28;20037;-43
2021/04/03 13:31:18;;;;;;;1.50;1.40;;;;;;;;;;5022812;28;20041;-45
2021/04/03 13:33:45;;;;;;;1.10;1.10;;;;;;;;;;5024898;28;20037;-47
2021/04/03 13:36:11;;;;;;;2.35;1.40;;;;;;;;;;5025501;28;20041;-43
2021/04/03 13:38:37;;;;;;;1.10;1.10;;;;;;;;;;5030145;28;20049;-43
2021/04/03 13:41:04;;;;;;;2.67;1.10;;;;;;;;;;5023275;28;20053;-42
2021/04/03 13:43:31;;;;;;;1.00;1.00;;;;;;;;;;5031591;28;20049;-43
2021/04/03 13:45:58;;;;;;;2.58;1.10;;;;;;;;;;5024711;28;20034;-43
2021/04/03 13:48:24;;;;;;;1.95;1.23;;;;;;;;;;5026616;28;20046;-46
2021/04/03 13:50:50;;;;;;;0.90;0.90;;;;;;;;;;5029754;28;20045;-44
2021/04/03 13:53:17;;;;;;;1.15;0.90;;;;;;;;;;5021069;28;20033;-44
2021/04/03 13:55:45;;;;;;;1.35;0.90;;;;;;;;;;5017793;28;20180;-45
2021/04/03 13:58:15;;;;;;;0.90;0.90;;;;;;;;;;5025827;28;20029;-43
2021/04/03 14:00:41;;;;;;;1.13;0.90;;;;;;;;;;5039910;28;20038;-45
2021/04/03 14:03:08;;;;;;;0.90;0.90;;;;;;;;;;5022261;28;20092;-45
2021/04/03 14:05:34;;;;;;;0.93;0.90;;;;;;;;;;5021918;28;20124;-44
2021/04/03 14:08:00;;;;;;;1.25;1.00;;;;;;;;;;5029032;28;20058;-43
2021/04/03 14:10:27;;;;;;;0.98;0.98;;;;;;;;;;5027313;28;20477;-47
2021/04/03 14:12:53;;;;;;;1.08;0.90;;;;;;;;;;5025040;28;20514;-45
2021/04/03 14:15:20;;;;;;;1.20;1.10;;;;;;;;;;5031045;28;20048;-44
2021/04/03 14:17:47;;;;;;;1.00;0.90;;;;;;;;;;5024176;28;20034;-46
2021/04/03 14:20:13;;;;;;;1.10;1.10;;;;;;;;;;5027997;28;20034;-48
2021/04/03 14:22:44;;;;;;;1.00;1.00;;;;;;;;;;5019696;28;20065;-47
2021/04/03 14:25:10;;;;;;;1.30;1.20;;;;;;;;;;5020199;28;20049;-45
2021/04/03 14:27:37;;;;;;;1.02;0.90;;;;;;;;;;5030407;28;20668;-45
2021/04/03 14:30:06;;;;;;;0.70;0.70;;;;;;;;;;5023496;28;20096;-45
2021/04/03 14:32:32;;;;;;;0.70;0.70;;;;;;;;;;5027251;28;20486;-45
2021/04/03 14:34:59;;;;;;;0.80;0.80;;;;;;;;;;5015068;28;20045;-46
2021/04/03 14:37:25;;;;;;;0.70;0.70;;;;;;;;;;5019729;28;20501;-45
2021/04/03 14:39:51;;;;;;;0.90;0.90;;;;;;;;;;5030254;28;20042;-47